Time;durP1;ratioP1;P1;durP2;ratioP2;P2;SDS_P1;SDS_P2;PMS_P1;PMS_P2;Temp;Humidity;BMP_temperature;BMP_pressure;BME280_temperature;BME280_humidity;BME280_pressure;Samples;Min_cycle;Max_cycle;Signal;HPM_P1;HPM_P2
2023/01/23 00:00:37;;;;;;;8.73;6.13;;;23.20;60.60;;;;;;5091600;28;20034;-75
2023/01/23 00:03:03;;;;;;;6.82;5.28;;;23.00;60.20;;;;;;5091852;28;20533;-75
2023/01/23 00:05:29;;;;;;;7.00;4.90;;;23.10;60.40;;;;;;5091369;28;20056;-75
2023/01/23 00:07:55;;;;;;;8.30;4.70;;;23.10;60.50;;;;;;5091528;28;20043;-75
2023/01/23 00:10:22;;;;;;;9.13;5.50;;;23.00;60.50;;;;;;5090827;28;20069;-74
2023/01/23 00:12:48;;;;;;;8.63;5.82;;;23.00;60.50;;;;;;5091489;28;20028;-75
2023/01/23 00:15:15;;;;;;;8.73;4.63;;;23.00;60.30;;;;;;5091474;28;20036;-75
2023/01/23 00:17:41;;;;;;;8.13;5.03;;;22.80;61.00;;;;;;5091478;28;20036;-75
2023/01/23 00:20:09;;;;;;;7.82;4.97;;;22.70;61.70;;;;;;5091693;28;20039;-75
2023/01/23 00:22:35;;;;;;;7.22;4.90;;;22.70;61.50;;;;;;5091623;28;20036;-74
2023/01/23 00:25:01;;;;;;;7.15;5.00;;;22.60;61.50;;;;;;5091421;28;20101;-75
2023/01/23 00:27:27;;;;;;;6.05;4.60;;;22.70;61.50;;;;;;5091315;28;20032;-75
2023/01/23 00:29:54;;;;;;;6.80;4.68;;;22.60;61.70;;;;;;5088563;28;20051;-75
2023/01/23 00:32:20;;;;;;;7.03;4.82;;;22.50;61.50;;;;;;5088807;28;20052;-75
2023/01/23 00:34:46;;;;;;;4.80;3.92;;;22.60;61.50;;;;;;5071871;28;20054;-75
2023/01/23 00:37:18;;;;;;;7.78;5.28;;;22.50;61.80;;;;;;5088256;28;20479;-75
2023/01/23 00:39:44;;;;;;;6.45;4.53;;;22.60;61.30;;;;;;5088232;28;20451;-75
2023/01/23 00:42:11;;;;;;;4.40;3.55;;;22.50;61.70;;;;;;5088228;28;20078;-75
2023/01/23 00:44:37;;;;;;;5.65;3.55;;;22.60;61.70;;;;;;5088756;28;20044;-75
2023/01/23 00:47:05;;;;;;;7.57;5.15;;;22.60;61.50;;;;;;5088385;28;20062;-75
2023/01/23 00:49:31;;;;;;;7.57;4.90;;;22.70;61.10;;;;;;5088593;28;20041;-75
2023/01/23 00:51:58;;;;;;;5.72;4.18;;;22.70;60.80;;;;;;5105622;28;20510;-75
2023/01/23 00:54:26;;;;;;;6.70;4.95;;;22.90;60.80;;;;;;5068136;28;20070;-75
2023/01/23 00:56:52;;;;;;;7.30;4.82;;;22.80;60.70;;;;;;5068238;28;20076;-75
2023/01/23 00:59:21;;;;;;;6.30;4.18;;;22.80;60.40;;;;;;5051257;28;20055;-75
2023/01/23 01:01:47;;;;;;;6.60;4.70;;;22.70;60.80;;;;;;5068537;28;20051;-75
2023/01/23 01:04:13;;;;;;;6.72;4.47;;;22.60;60.70;;;;;;5051716;28;20551;-75
2023/01/23 01:06:39;;;;;;;6.65;4.18;;;22.70;60.80;;;;;;5068167;28;20458;-75
2023/01/23 01:09:05;;;;;;;6.65;4.57;;;22.70;61.00;;;;;;5051078;28;20088;-75
2023/01/23 01:11:31;;;;;;;6.55;4.00;;;22.60;60.90;;;;;;5067966;28;20520;-75
2023/01/23 01:13:58;;;;;;;7.72;4.35;;;22.60;61.50;;;;;;5051389;28;20051;-74
2023/01/23 01:16:24;;;;;;;5.07;3.88;;;22.60;61.30;;;;;;5068001;28;20138;-75
2023/01/23 01:18:50;;;;;;;5.32;4.25;;;22.40;61.40;;;;;;5068134;28;20040;-75
2023/01/23 01:21:17;;;;;;;5.70;4.13;;;22.60;61.30;;;;;;5068264;28;20064;-75
2023/01/23 01:23:44;;;;;;;6.90;5.35;;;22.60;61.40;;;;;;5070162;28;20229;-75
2023/01/23 01:26:10;;;;;;;6.78;4.13;;;22.60;61.40;;;;;;5071364;28;20044;-75
2023/01/23 01:28:38;;;;;;;5.05;3.90;;;22.60;61.30;;;;;;5054893;28;20044;-75
2023/01/23 01:31:11;;;;;;;5.03;4.35;;;22.40;61.00;;;;;;5058706;28;20049;-75
2023/01/23 01:33:39;;;;;;;5.88;3.92;;;22.40;61.40;;;;;;5094461;28;20044;-75
2023/01/23 01:36:13;;;;;;;4.90;3.80;;;22.40;61.40;;;;;;5094105;28;20032;-75
2023/01/23 01:38:40;;;;;;;6.60;4.70;;;22.30;61.50;;;;;;5093313;28;20035;-75
2023/01/23 01:41:07;;;;;;;8.32;4.40;;;22.20;61.40;;;;;;5094153;28;20396;-75
2023/01/23 01:43:34;;;;;;;5.72;4.43;;;22.20;61.70;;;;;;5093178;28;20161;-75
2023/01/23 01:46:06;;;;;;;6.07;3.78;;;22.20;62.00;;;;;;5091275;28;20075;-75
2023/01/23 01:48:35;;;;;;;4.95;3.33;;;22.00;61.90;;;;;;5091681;28;20043;-75
2023/01/23 01:51:04;;;;;;;4.50;3.60;;;22.10;62.20;;;;;;5074491;28;20093;-75
2023/01/23 01:53:31;;;;;;;5.25;3.70;;;22.00;61.80;;;;;;5074592;28;20051;-75
2023/01/23 01:55:58;;;;;;;6.43;4.75;;;22.00;61.90;;;;;;5091554;28;20058;-75
2023/01/23 01:58:26;;;;;;;4.97;3.70;;;22.00;61.80;;;;;;5074290;28;20054;-75
2023/01/23 02:00:53;;;;;;;5.15;3.92;;;22.00;62.20;;;;;;5091447;28;20036;-75
2023/01/23 02:03:19;;;;;;;6.97;4.28;;;22.00;62.20;;;;;;5074214;28;20538;-75
2023/01/23 02:05:48;;;;;;;5.22;3.95;;;21.90;61.90;;;;;;5091399;28;20432;-75
2023/01/23 02:08:36;;;;;;;4.57;3.67;;;21.90;62.00;;;;;;5090595;28;20050;-75
2023/01/23 02:11:04;;;;;;;6.13;3.92;;;22.00;61.70;;;;;;5074481;28;20487;-75
2023/01/23 02:13:38;;;;;;;6.00;4.60;;;21.90;61.60;;;;;;5074248;28;20039;-75
2023/01/23 02:16:25;;;;;;;;;;;21.90;61.70;;;;;;5091554;28;20044;-75
2023/01/23 02:18:56;;;;;;;5.72;3.50;;;21.80;61.90;;;;;;5090571;28;19941;-75
2023/01/23 02:21:23;;;;;;;5.53;3.95;;;21.80;62.30;;;;;;5073640;28;20046;-75
2023/01/23 02:24:05;;;;;;;5.78;4.10;;;21.80;61.90;;;;;;5092183;28;20039;-75
2023/01/23 02:26:39;;;;;;;6.82;4.35;;;21.80;61.90;;;;;;5092830;28;20053;-75
2023/01/23 02:29:06;;;;;;;7.68;4.25;;;21.80;62.00;;;;;;5092910;28;20040;-75
2023/01/23 02:31:44;;;;;;;7.95;5.22;;;21.80;61.70;;;;;;5091615;28;20043;-75
2023/01/23 02:34:11;;;;;;;7.28;4.90;;;21.70;61.60;;;;;;5092516;28;20094;-75
2023/01/23 02:36:40;;;;;;;5.70;4.13;;;21.80;61.70;;;;;;5091171;28;20039;-75
2023/01/23 02:39:13;;;;;;;8.30;4.72;;;21.80;61.90;;;;;;5091800;28;20040;-75
2023/01/23 02:41:48;;;;;;;5.60;3.83;;;21.80;61.50;;;;;;5091563;28;20383;-75
2023/01/23 02:44:23;;;;;;;6.75;4.60;;;21.70;61.60;;;;;;5091705;28;20444;-75
2023/01/23 02:46:58;;;;;;;5.90;4.35;;;21.70;61.60;;;;;;5074807;28;20098;-75
2023/01/23 02:49:26;;;;;;;5.35;4.15;;;21.70;61.50;;;;;;5091305;28;20047;-75
2023/01/23 02:51:54;;;;;;;6.30;3.97;;;21.70;61.40;;;;;;5091180;28;20036;-75
2023/01/23 02:54:21;;;;;;;5.95;4.45;;;21.70;61.70;;;;;;5090962;28;20043;-75
2023/01/23 02:56:47;;;;;;;7.25;4.57;;;21.60;61.70;;;;;;5090791;28;20028;-75
2023/01/23 03:01:59;;;;;;;5.43;4.45;;;21.60;61.60;;;;;;5090978;28;20028;-75
2023/01/23 03:04:25;;;;;;;8.02;4.88;;;21.50;61.40;;;;;;5091215;28;20035;-75
2023/01/23 03:06:51;;;;;;;7.10;4.60;;;21.50;61.50;;;;;;5091206;28;20393;-75
2023/01/23 03:09:18;;;;;;;6.65;4.30;;;21.40;61.60;;;;;;5073256;28;20443;-74
2023/01/23 03:11:46;;;;;;;6.32;4.55;;;21.40;61.40;;;;;;5074284;28;20400;-75
2023/01/23 03:14:18;;;;;;;6.40;4.28;;;21.40;61.30;;;;;;5091039;28;20165;-75
2023/01/23 03:16:49;;;;;;;6.57;4.47;;;21.30;61.00;;;;;;5091281;28;20044;-75
2023/01/23 03:19:16;;;;;;;5.65;4.25;;;21.40;61.30;;;;;;5090897;28;20268;-75
2023/01/23 03:21:43;;;;;;;5.70;4.25;;;21.50;61.30;;;;;;5091002;28;20034;-74
2023/01/23 03:24:11;;;;;;;4.53;3.50;;;21.40;60.80;;;;;;5092234;28;20068;-75
2023/01/23 03:26:42;;;;;;;6.72;4.78;;;21.50;61.20;;;;;;5092207;28;20048;-75
2023/01/23 03:32:01;;;;;;;5.88;3.63;;;21.60;61.00;;;;;;5091121;28;20119;-75
2023/01/23 03:34:28;;;;;;;4.70;3.40;;;21.50;60.50;;;;;;5090749;28;20558;-75
2023/01/23 03:36:54;;;;;;;5.65;3.70;;;21.40;60.70;;;;;;5090943;28;20040;-75
2023/01/23 03:42:08;;;;;;;5.43;4.40;;;21.50;60.60;;;;;;5090447;28;20032;-75
2023/01/23 03:44:34;;;;;;;5.75;4.47;;;21.50;60.60;;;;;;5090805;28;20330;-75
2023/01/23 03:47:01;;;;;;;6.18;4.18;;;21.50;60.40;;;;;;5090211;28;20028;-75
2023/01/23 03:49:27;;;;;;;6.00;4.20;;;21.50;60.60;;;;;;5090507;28;20024;-75
2023/01/23 03:51:58;;;;;;;6.53;4.88;;;21.50;60.60;;;;;;5090483;28;20043;-75
2023/01/23 03:54:25;;;;;;;5.18;4.22;;;21.40;60.50;;;;;;5090223;28;20093;-75
2023/01/23 03:56:52;;;;;;;5.63;4.25;;;21.50;60.50;;;;;;5090697;28;20051;-74
2023/01/23 03:59:44;;;;;;;4.93;3.90;;;21.40;60.40;;;;;;5049031;28;20033;-75
2023/01/23 04:02:10;;;;;;;8.38;4.45;;;21.50;60.50;;;;;;5032121;28;20331;-75
2023/01/23 04:04:37;;;;;;;6.55;4.35;;;21.40;60.30;;;;;;5032087;28;20179;-75
2023/01/23 04:07:07;;;;;;;6.45;3.65;;;21.40;60.30;;;;;;5032075;28;20600;-75
2023/01/23 04:09:34;;;;;;;5.18;3.55;;;21.30;60.30;;;;;;5031914;28;20106;-74
2023/01/23 04:12:00;;;;;;;5.40;3.90;;;21.30;60.20;;;;;;5048903;28;20070;-75
2023/01/23 04:14:29;;;;;;;4.97;3.28;;;21.20;60.40;;;;;;5032036;28;20098;-75
2023/01/23 04:16:55;;;;;;;5.45;3.63;;;21.30;60.40;;;;;;5032151;28;20829;-75
2023/01/23 04:19:21;;;;;;;6.55;4.18;;;21.30;60.30;;;;;;5031972;28;20028;-75
2023/01/23 04:21:48;;;;;;;5.63;3.63;;;21.20;60.10;;;;;;5032250;28;20028;-75
2023/01/23 04:24:15;;;;;;;5.80;3.88;;;21.20;60.10;;;;;;5031834;28;20079;-74
2023/01/23 04:26:43;;;;;;;5.25;3.65;;;21.20;60.10;;;;;;5019724;28;20648;-74
2023/01/23 04:29:10;;;;;;;4.97;3.22;;;21.20;60.10;;;;;;5028656;28;20036;-75
2023/01/23 04:31:37;;;;;;;4.13;3.28;;;21.10;60.40;;;;;;5012053;28;20049;-74
2023/01/23 04:34:03;;;;;;;4.40;3.30;;;21.00;60.30;;;;;;5028624;28;20033;-75
2023/01/23 04:36:29;;;;;;;7.05;3.65;;;21.00;60.40;;;;;;5038123;28;20078;-75
2023/01/23 04:38:55;;;;;;;4.20;3.17;;;21.10;60.20;;;;;;5069960;28;20167;-75
2023/01/23 04:41:28;;;;;;;6.10;3.53;;;21.10;60.40;;;;;;5069902;28;20446;-74
2023/01/23 04:44:19;;;;;;;5.10;2.85;;;21.00;60.40;;;;;;5070777;28;20036;-74
2023/01/23 04:46:59;;;;;;;5.78;2.42;;;21.00;60.80;;;;;;5069807;28;20048;-75
2023/01/23 04:49:27;;;;;;;4.25;2.88;;;21.30;60.10;;;;;;5069886;28;20036;-74
2023/01/23 04:51:53;;;;;;;4.82;3.05;;;21.40;59.00;;;;;;5086387;28;20335;-75
2023/01/23 04:54:24;;;;;;;5.53;3.28;;;21.50;58.40;;;;;;5069815;28;20682;-74
2023/01/23 04:56:51;;;;;;;4.47;3.00;;;21.80;58.30;;;;;;5083868;28;20043;-74
2023/01/23 04:59:19;;;;;;;5.03;2.78;;;21.70;57.90;;;;;;5093307;28;20062;-74
2023/01/23 05:01:45;;;;;;;5.53;3.78;;;21.90;58.00;;;;;;5094002;28;20036;-74
2023/01/23 05:04:11;;;;;;;5.93;3.22;;;22.00;57.60;;;;;;5093704;28;20119;-73
2023/01/23 05:06:38;;;;;;;3.47;2.78;;;22.00;57.90;;;;;;5093553;28;20028;-73
2023/01/23 05:09:06;;;;;;;4.45;2.75;;;22.30;58.90;;;;;;5093528;28;20175;-74
2023/01/23 05:11:42;;;;;;;3.40;2.75;;;22.60;58.70;;;;;;5093599;28;20032;-73
2023/01/23 05:14:11;;;;;;;3.83;2.88;;;23.00;58.30;;;;;;5093483;28;20435;-74
2023/01/23 05:16:39;;;;;;;3.65;3.00;;;23.00;54.10;;;;;;5093243;28;20380;-74
2023/01/23 05:19:17;;;;;;;3.70;3.20;;;22.90;52.10;;;;;;5092925;28;20081;-76
2023/01/23 05:21:44;;;;;;;3.50;2.75;;;22.90;50.60;;;;;;5092725;28;20032;-74
2023/01/23 05:24:15;;;;;;;3.55;3.25;;;22.80;49.20;;;;;;5092677;28;20063;-74
2023/01/23 05:26:42;;;;;;;3.00;2.65;;;22.50;49.70;;;;;;5092537;28;20081;-74
2023/01/23 05:29:08;;;;;;;3.92;3.13;;;22.30;50.10;;;;;;5093537;28;20024;-75
2023/01/23 05:31:38;;;;;;;3.67;3.30;;;22.10;50.70;;;;;;5092951;28;20036;-75
2023/01/23 05:34:28;;;;;;;4.18;3.45;;;22.00;51.60;;;;;;5094234;28;20026;-75
2023/01/23 05:36:54;;;;;;;3.75;3.33;;;22.00;52.70;;;;;;5093089;28;20700;-74
2023/01/23 05:39:21;;;;;;;5.22;3.60;;;21.90;53.40;;;;;;5093233;28;20085;-76
2023/01/23 05:41:47;;;;;;;3.50;2.85;;;21.80;53.70;;;;;;5092781;28;20457;-75
2023/01/23 05:44:30;;;;;;;6.45;3.67;;;21.70;54.20;;;;;;5093070;28;20111;-76
2023/01/23 05:47:04;;;;;;;2.88;2.40;;;21.70;55.20;;;;;;5092880;28;20040;-76
2023/01/23 05:49:30;;;;;;;5.28;3.05;;;21.90;54.90;;;;;;5093081;28;20028;-76
2023/01/23 05:51:56;;;;;;;3.53;2.65;;;22.00;54.50;;;;;;5092799;28;20032;-76
2023/01/23 05:54:24;;;;;;;3.22;2.90;;;22.10;54.10;;;;;;5092824;28;20097;-75
2023/01/23 05:56:51;;;;;;;3.55;2.92;;;22.20;57.90;;;;;;5092611;28;20420;-77
2023/01/23 05:59:35;;;;;;;2.95;2.63;;;22.40;59.90;;;;;;5093781;28;20023;-76
2023/01/23 06:02:29;;;;;;;5.13;3.17;;;22.60;60.60;;;;;;5099711;27;20039;-77
2023/01/23 06:05:15;;;;;;;3.22;2.75;;;22.70;53.80;;;;;;5050855;28;20044;-76
2023/01/23 06:08:02;;;;;;;3.75;2.88;;;22.60;49.10;;;;;;5050019;28;20055;-76
2023/01/23 06:10:29;;;;;;;3.35;3.05;;;22.50;48.00;;;;;;5050236;28;20474;-75
2023/01/23 06:12:55;;;;;;;4.13;3.60;;;22.50;49.00;;;;;;5034191;28;20048;-75
2023/01/23 06:15:21;;;;;;;3.40;3.00;;;22.50;48.90;;;;;;5033935;28;20119;-76
2023/01/23 06:17:49;;;;;;;3.35;2.85;;;22.40;50.90;;;;;;5034118;28;20140;-75
2023/01/23 06:20:15;;;;;;;4.63;3.65;;;22.40;48.60;;;;;;5032394;28;20099;-78
2023/01/23 06:22:44;;;;;;;4.70;3.65;;;22.40;47.20;;;;;;5014108;28;20037;-74
2023/01/23 06:25:12;;;;;;;2.55;2.35;;;22.30;48.00;;;;;;5030793;28;20064;-75
2023/01/23 06:27:38;;;;;;;4.05;3.10;;;22.30;59.10;;;;;;5030679;28;20029;-73
2023/01/23 06:30:08;;;;;;;3.08;2.80;;;22.50;59.90;;;;;;5030627;28;20435;-74
2023/01/23 06:32:39;;;;;;;4.57;3.42;;;22.70;59.50;;;;;;5030203;28;20140;-74
2023/01/23 06:35:07;;;;;;;4.00;3.40;;;22.50;59.80;;;;;;5030302;28;20049;-73
2023/01/23 06:37:37;;;;;;;4.25;3.28;;;22.40;60.40;;;;;;5030344;28;20057;-73
2023/01/23 06:40:04;;;;;;;4.15;3.10;;;22.30;60.80;;;;;;5030465;28;20030;-71
2023/01/23 06:42:30;;;;;;;4.70;3.30;;;22.10;49.90;;;;;;5044558;28;20512;-74
2023/01/23 06:44:57;;;;;;;5.95;4.43;;;22.20;45.50;;;;;;5070338;28;20116;-73
2023/01/23 06:47:25;;;;;;;1.83;1.65;;;22.40;45.20;;;;;;5053204;28;20121;-75
2023/01/23 06:49:57;;;;;;;3.28;1.63;;;22.40;49.20;;;;;;5053644;28;20089;-77
2023/01/23 06:52:24;;;;;;;6.18;1.83;;;22.60;58.90;;;;;;5053655;28;20176;-76
2023/01/23 06:54:50;;;;;;;1.42;1.33;;;22.80;60.60;;;;;;5053416;28;20039;-74
2023/01/23 06:57:16;;;;;;;1.25;1.15;;;23.00;61.70;;;;;;5087046;28;20625;-73
2023/01/23 06:59:44;;;;;;;1.13;1.02;;;23.30;59.20;;;;;;5053247;28;20083;-73
2023/01/23 07:02:13;;;;;;;3.10;1.90;;;23.30;58.80;;;;;;5053142;28;20131;-75
2023/01/23 07:04:44;;;;;;;5.07;3.40;;;23.30;56.10;;;;;;5072643;28;20099;-73
2023/01/23 07:07:11;;;;;;;8.35;5.03;;;23.40;48.30;;;;;;5091407;28;20036;-74
2023/01/23 07:09:38;;;;;;;3.35;1.98;;;23.30;45.70;;;;;;5091032;28;20056;-72
2023/01/23 07:12:18;;;;;;;2.50;1.13;;;23.50;47.80;;;;;;5091062;28;20024;-74
2023/01/23 07:14:45;;;;;;;2.47;1.33;;;23.50;53.30;;;;;;5090928;28;20063;-73
2023/01/23 07:17:15;;;;;;;4.47;2.58;;;23.40;54.40;;;;;;5091145;28;20400;-72
2023/01/23 07:19:41;;;;;;;5.85;4.93;;;23.70;53.80;;;;;;5090734;28;20034;-73
2023/01/23 07:22:10;;;;;;;6.82;4.85;;;23.60;52.70;;;;;;5091611;28;20469;-72
2023/01/23 07:24:36;;;;;;;7.65;5.18;;;23.70;52.80;;;;;;5089614;28;20035;-76
2023/01/23 07:27:02;;;;;;;5.47;4.70;;;23.60;46.30;;;;;;5110039;28;20028;-77
2023/01/23 07:29:28;;;;;;;7.63;5.03;;;23.70;46.30;;;;;;5092174;28;20081;-74
2023/01/23 07:31:57;;;;;;;1.38;1.27;;;23.60;46.60;;;;;;5098444;28;20032;-75
2023/01/23 07:34:23;;;;;;;3.05;1.38;;;23.70;53.30;;;;;;5095638;28;20564;-71
2023/01/23 07:36:49;;;;;;;3.08;2.17;;;23.80;55.70;;;;;;5091883;28;20469;-73
2023/01/23 07:39:15;;;;;;;10.75;2.25;;;23.90;54.70;;;;;;5092083;28;20043;-73
2023/01/23 07:41:41;;;;;;;2.88;1.38;;;23.90;54.50;;;;;;5108376;28;20035;-74
2023/01/23 07:44:07;;;;;;;4.05;1.55;;;24.00;54.20;;;;;;5112359;28;20027;-73
2023/01/23 07:46:33;;;;;;;4.90;4.40;;;23.90;54.50;;;;;;5112277;28;20164;-74
2023/01/23 07:48:59;;;;;;;8.00;5.43;;;24.00;48.90;;;;;;5112342;28;20107;-74
2023/01/23 07:51:25;;;;;;;12.45;4.45;;;24.10;45.70;;;;;;5092739;28;20057;-74
2023/01/23 07:53:51;;;;;;;8.63;5.03;;;24.00;44.80;;;;;;5091442;28;20058;-74
2023/01/23 07:56:17;;;;;;;7.97;4.93;;;24.10;42.30;;;;;;5091809;28;20043;-75
2023/01/23 07:58:44;;;;;;;12.40;4.47;;;24.10;42.20;;;;;;5103190;28;20036;-74
2023/01/23 08:01:10;;;;;;;6.43;4.60;;;24.20;42.10;;;;;;5091721;28;20549;-73
2023/01/23 08:03:37;;;;;;;3.85;3.30;;;24.10;39.70;;;;;;5072452;28;20130;-75
2023/01/23 08:06:03;;;;;;;8.05;5.20;;;24.20;40.50;;;;;;5091820;28;20422;-74
2023/01/23 08:08:29;;;;;;;7.28;4.25;;;24.30;43.90;;;;;;5091180;28;20044;-74
2023/01/23 08:10:55;;;;;;;7.32;5.03;;;24.30;45.00;;;;;;5090380;28;20121;-75
2023/01/23 08:13:21;;;;;;;8.05;5.55;;;24.40;43.00;;;;;;5091401;28;20177;-77
2023/01/23 08:15:47;;;;;;;4.68;4.03;;;24.40;48.80;;;;;;5091712;28;20047;-77
2023/01/23 08:18:13;;;;;;;10.30;5.18;;;24.50;45.50;;;;;;5091620;28;20031;-75
2023/01/23 08:20:39;;;;;;;5.25;3.30;;;24.50;44.60;;;;;;5091380;28;20035;-77
2023/01/23 08:23:05;;;;;;;3.95;3.55;;;24.50;41.40;;;;;;5091314;28;20400;-77
2023/01/23 08:25:31;;;;;;;5.93;4.55;;;24.40;43.40;;;;;;5059835;28;20048;-76
2023/01/23 08:27:57;;;;;;;6.30;3.72;;;24.50;46.00;;;;;;5091639;28;20031;-75
2023/01/23 08:30:23;;;;;;;6.40;4.95;;;24.70;50.00;;;;;;5091458;28;20032;-76
2023/01/23 08:32:49;;;;;;;12.15;5.80;;;24.80;49.50;;;;;;5110050;28;20107;-76
2023/01/23 08:35:15;;;;;;;6.05;4.30;;;24.90;52.40;;;;;;5115900;28;20781;-74
2023/01/23 08:37:41;;;;;;;9.00;5.13;;;25.00;47.70;;;;;;5116036;28;20034;-75
2023/01/23 08:40:08;;;;;;;9.35;5.22;;;25.00;48.40;;;;;;5115926;28;20027;-74
2023/01/23 08:42:34;;;;;;;6.63;4.97;;;25.00;44.30;;;;;;5114657;28;20039;-74
2023/01/23 08:45:00;;;;;;;6.10;4.85;;;25.00;42.60;;;;;;5115817;28;20032;-74
2023/01/23 08:47:26;;;;;;;6.63;5.22;;;24.80;43.60;;;;;;5115733;28;20024;-76
2023/01/23 08:49:52;;;;;;;8.00;5.05;;;25.00;41.80;;;;;;5115880;28;20039;-76
2023/01/23 08:52:18;;;;;;;6.97;5.10;;;25.00;41.00;;;;;;5115559;28;20084;-73
2023/01/23 08:54:44;;;;;;;8.95;6.65;;;25.00;40.80;;;;;;5096071;28;20040;-75
2023/01/23 08:57:10;;;;;;;7.07;5.30;;;25.00;40.80;;;;;;5092184;28;20044;-75
2023/01/23 08:59:35;;;;;;;7.93;5.32;;;25.00;43.40;;;;;;5058354;28;20037;-76
2023/01/23 09:02:01;;;;;;;7.03;4.05;;;25.10;38.60;;;;;;5052209;28;20060;-76
2023/01/23 09:04:27;;;;;;;5.38;4.20;;;25.00;40.40;;;;;;5051876;28;20469;-80
2023/01/23 09:06:53;;;;;;;6.43;4.25;;;25.20;41.90;;;;;;5051838;28;20041;-75
2023/01/23 09:09:19;;;;;;;5.85;3.55;;;25.10;38.60;;;;;;5051850;28;20541;-76
2023/01/23 09:11:45;;;;;;;7.55;4.38;;;25.20;38.90;;;;;;5035296;28;20052;-79
2023/01/23 09:14:11;;;;;;;7.60;3.65;;;25.10;42.70;;;;;;5057739;28;20500;-74
2023/01/23 09:16:39;;;;;;;9.95;5.88;;;25.30;36.50;;;;;;5071898;28;20143;-77
2023/01/23 09:19:06;;;;;;;5.70;3.75;;;25.20;40.60;;;;;;5071761;28;20064;-78
2023/01/23 09:21:33;;;;;;;10.07;6.68;;;25.20;35.20;;;;;;5071133;28;20433;-78
2023/01/23 09:23:59;;;;;;;9.50;6.32;;;25.30;49.40;;;;;;5071436;28;20048;-79
2023/01/23 09:26:25;;;;;;;7.55;5.70;;;25.30;55.70;;;;;;5071517;28;20542;-75
2023/01/23 09:28:51;;;;;;;9.55;5.40;;;25.10;55.20;;;;;;5089502;28;20539;-77
2023/01/23 09:31:17;;;;;;;9.07;6.35;;;25.20;53.90;;;;;;5094042;28;20036;-78
2023/01/23 09:33:43;;;;;;;8.23;5.15;;;25.10;53.40;;;;;;5093902;28;20028;-75
2023/01/23 09:36:09;;;;;;;9.15;5.50;;;24.90;53.50;;;;;;5093893;28;20032;-76
2023/01/23 09:38:35;;;;;;;8.70;5.05;;;24.80;54.00;;;;;;5094238;28;20459;-76
2023/01/23 09:41:28;;;;;;;8.32;5.30;;;24.50;55.00;;;;;;5094094;28;20027;-76
2023/01/23 09:44:01;;;;;;;9.45;6.35;;;24.50;55.40;;;;;;5030338;28;20041;-76
2023/01/23 09:47:01;;;;;;;8.38;6.20;;;24.40;56.20;;;;;;5031224;28;20540;-78
2023/01/23 09:49:45;;;;;;;7.85;5.80;;;24.60;47.60;;;;;;5031252;28;20091;-79
2023/01/23 09:52:18;;;;;;;9.50;6.88;;;24.80;43.10;;;;;;5031462;28;20030;-79
2023/01/23 09:54:48;;;;;;;;;;;24.80;46.10;;;;;;5031602;28;20148;-78
2023/01/23 09:57:22;;;;;;;9.18;7.07;;;24.90;43.20;;;;;;5031127;28;19945;-78
2023/01/23 09:59:53;;;;;;;11.32;6.20;;;24.90;41.80;;;;;;5031068;28;20084;-78
2023/01/23 10:02:21;;;;;;;9.43;6.50;;;25.00;41.40;;;;;;5031186;28;20104;-77
2023/01/23 10:04:51;;;;;;;7.45;5.47;;;24.80;40.40;;;;;;5030845;28;20105;-79
2023/01/23 10:07:23;;;;;;;10.05;6.47;;;24.90;41.90;;;;;;5030788;28;20042;-77
2023/01/23 10:09:49;;;;;;;10.75;5.90;;;25.00;43.30;;;;;;5030773;28;20062;-77
2023/01/23 10:12:57;;;;;;;7.97;5.30;;;25.00;51.10;;;;;;5031004;28;20095;-77
2023/01/23 10:16:07;;;;;;;9.57;6.30;;;25.00;53.00;;;;;;5030785;28;20054;-76
2023/01/23 10:18:48;;;;;;;7.05;5.10;;;25.00;53.60;;;;;;5011088;28;20038;-76
2023/01/23 10:21:31;;;;;;;7.95;5.70;;;24.90;41.50;;;;;;5037422;28;20057;-80
2023/01/23 10:24:00;;;;;;;;;;;24.80;40.90;;;;;;5051113;28;20048;-78
2023/01/23 10:26:31;;;;;;;22.83;6.47;;;24.90;39.90;;;;;;5050569;28;19909;-78
2023/01/23 10:29:09;;;;;;;7.97;4.32;;;25.00;37.30;;;;;;5033598;28;20043;-80
2023/01/23 10:31:56;;;;;;;8.65;5.30;;;24.80;41.70;;;;;;5036620;28;20089;-76
2023/01/23 10:34:36;;;;;;;7.82;5.22;;;25.00;53.00;;;;;;5069956;28;20055;-76
2023/01/23 10:37:05;;;;;;;8.80;5.82;;;25.20;52.10;;;;;;5069694;28;20663;-77
2023/01/23 10:39:59;;;;;;;9.80;6.18;;;25.60;50.60;;;;;;5069810;28;20040;-76
2023/01/23 10:42:26;;;;;;;9.77;6.47;;;25.50;39.70;;;;;;5010480;28;20161;-75
2023/01/23 10:44:52;;;;;;;10.15;6.40;;;25.30;39.40;;;;;;5010239;28;20049;-74
2023/01/23 10:47:40;;;;;;;10.50;6.03;;;25.30;52.10;;;;;;5010569;28;20044;-74
2023/01/23 10:50:07;;;;;;;7.97;5.53;;;25.40;59.70;;;;;;5062396;28;20051;-75
2023/01/23 10:52:42;;;;;;;7.30;5.00;;;26.10;66.10;;;;;;5070091;28;20398;-74
2023/01/23 10:55:26;;;;;;;8.82;5.55;;;26.50;61.70;;;;;;5069850;28;20041;-75
2023/01/23 10:57:54;;;;;;;5.00;3.72;;;26.20;53.10;;;;;;5070264;28;20051;-75
2023/01/23 11:00:38;;;;;;;6.93;4.88;;;26.00;49.90;;;;;;5013639;28;20072;-78
2023/01/23 11:03:29;;;;;;;5.68;4.35;;;26.10;51.20;;;;;;5030144;28;20072;-76
2023/01/23 11:06:03;;;;;;;8.23;5.25;;;26.00;54.20;;;;;;4990592;28;20050;-77
2023/01/23 11:08:29;;;;;;;6.55;4.60;;;25.80;54.00;;;;;;4990257;28;20101;-74
2023/01/23 11:11:29;;;;;;;9.15;5.13;;;25.70;54.50;;;;;;4990441;28;20061;-74
2023/01/23 11:14:10;;;;;;;9.27;5.93;;;25.60;55.30;;;;;;4974065;28;20046;-76
2023/01/23 11:16:37;;;;;;;7.15;5.53;;;25.30;56.00;;;;;;4990165;28;20534;-79
2023/01/23 11:19:16;;;;;;;8.23;5.38;;;25.20;57.30;;;;;;5004112;28;20184;-77
2023/01/23 11:21:48;;;;;;;7.45;4.22;;;25.00;57.50;;;;;;5029651;28;20495;-77
2023/01/23 11:24:23;;;;;;;7.75;5.22;;;24.90;57.80;;;;;;5029284;28;20049;-77
2023/01/23 11:27:05;;;;;;;8.18;5.07;;;24.90;57.90;;;;;;5029676;28;20041;-77
2023/01/23 11:29:44;;;;;;;6.18;4.75;;;24.60;58.50;;;;;;5029686;28;20045;-77
2023/01/23 11:32:12;;;;;;;7.93;5.00;;;24.50;58.80;;;;;;5029340;28;20502;-77
2023/01/23 11:35:09;;;;;;;8.18;5.03;;;24.50;59.20;;;;;;5029171;28;20714;-77
2023/01/23 11:37:39;;;;;;;7.60;5.53;;;24.30;60.00;;;;;;5029258;28;20037;-77
2023/01/23 11:40:09;;;;;;;7.97;5.47;;;24.20;59.80;;;;;;5029441;28;20029;-77
2023/01/23 11:42:39;;;;;;;25.25;9.60;;;24.10;60.80;;;;;;5044721;28;20048;-76
2023/01/23 11:45:31;;;;;;;13.40;7.13;;;24.10;60.50;;;;;;5070447;28;20028;-77
2023/01/23 11:48:28;;;;;;;8.88;6.07;;;23.80;61.90;;;;;;4999673;28;20538;-76
2023/01/23 11:51:18;;;;;;;8.30;4.68;;;23.60;61.50;;;;;;5009448;28;20548;-78
2023/01/23 11:54:36;;;;;;;5.72;3.83;;;23.70;62.50;;;;;;5009232;28;20049;-76
2023/01/23 11:57:17;;;;;;;4.75;3.35;;;23.50;63.10;;;;;;4970411;28;20467;-76
2023/01/23 12:00:09;;;;;;;6.35;3.67;;;23.40;63.20;;;;;;4970380;28;20166;-75
2023/01/23 12:02:48;;;;;;;13.27;6.15;;;23.40;63.40;;;;;;4970198;28;20070;-76
2023/01/23 12:05:23;;;;;;;7.95;4.75;;;23.30;64.00;;;;;;4970301;28;20039;-76
2023/01/23 12:08:07;;;;;;;5.38;3.38;;;23.30;64.00;;;;;;4969601;28;20039;-77
2023/01/23 12:10:44;;;;;;;22.20;11.43;;;23.20;64.60;;;;;;4970258;28;20122;-77
2023/01/23 12:13:24;;;;;;;8.00;4.72;;;23.10;64.00;;;;;;4954194;28;20082;-79
2023/01/23 12:16:19;;;;;;;11.95;6.75;;;23.00;64.10;;;;;;4970193;28;20050;-80
2023/01/23 12:19:05;;;;;;;11.02;7.13;;;23.00;64.60;;;;;;4953964;28;20176;-79
2023/01/23 12:22:02;;;;;;;9.50;5.45;;;22.90;64.80;;;;;;4970170;28;20039;-82
2023/01/23 12:24:49;;;;;;;8.57;5.55;;;23.10;65.30;;;;;;4983930;28;20479;-81
2023/01/23 12:27:23;;;;;;;7.93;5.13;;;22.90;65.30;;;;;;5012440;28;20029;-80
2023/01/23 12:30:10;;;;;;;10.30;5.25;;;22.90;65.30;;;;;;5028578;28;20533;-79
2023/01/23 12:32:48;;;;;;;8.20;5.57;;;22.90;65.30;;;;;;5045947;28;20041;-77
2023/01/23 12:35:46;;;;;;;6.97;4.20;;;23.10;65.80;;;;;;5070572;28;20377;-78
2023/01/23 12:38:29;;;;;;;5.65;4.47;;;23.00;65.10;;;;;;5071110;28;20086;-78
2023/01/23 12:41:13;;;;;;;5.72;4.57;;;22.90;65.20;;;;;;5071021;28;20142;-75
2023/01/23 12:43:51;;;;;;;6.68;4.78;;;23.10;65.40;;;;;;5071065;28;20036;-75
2023/01/23 12:46:23;;;;;;;5.07;3.55;;;22.90;65.10;;;;;;5071031;28;20052;-74
2023/01/23 12:49:05;;;;;;;5.97;4.18;;;22.90;65.20;;;;;;5071131;28;20365;-74
2023/01/23 12:51:36;;;;;;;5.43;3.58;;;22.80;65.30;;;;;;5082752;28;20040;-75
2023/01/23 12:54:10;;;;;;;5.10;3.10;;;22.80;66.10;;;;;;5091236;28;20056;-73
2023/01/23 12:56:38;;;;;;;6.50;4.10;;;22.90;66.60;;;;;;5089866;28;20058;-73
2023/01/23 12:59:14;;;;;;;5.20;3.55;;;22.80;65.80;;;;;;5090001;28;20036;-73
2023/01/23 13:02:03;;;;;;;6.15;3.83;;;22.80;65.60;;;;;;5089855;28;20043;-72
2023/01/23 13:04:41;;;;;;;5.60;3.70;;;22.80;65.30;;;;;;5088574;28;20044;-73
2023/01/23 13:07:26;;;;;;;5.13;3.20;;;22.80;66.30;;;;;;5090521;28;20541;-75
2023/01/23 13:10:12;;;;;;;5.57;3.05;;;22.90;71.00;;;;;;5087790;28;20097;-74
2023/01/23 13:12:38;;;;;;;3.85;3.40;;;23.10;69.80;;;;;;5090357;28;20420;-75
2023/01/23 13:15:18;;;;;;;9.85;5.15;;;23.10;66.90;;;;;;5090147;28;20050;-74
2023/01/23 13:17:57;;;;;;;7.72;4.68;;;23.30;65.80;;;;;;5090493;28;20342;-74